Hindsville, Arkansas
Current Conditions -  °F | °C
As of 9:48 AM on Thursday 23 Oct 2014 (Local Time) from KASG Reporting Station
Overcast Overcast  
Wind Chill: 55°   Ceiling: 6000
Heat Index: 55°   Visibility: 7mi
Dew Point: 46°   Wind: 8mph
Humidity: 72%   Direction: 140°SE
Pressure: 30.22"   Gusts: NA
Location:  36.14°N, 93.86°W
Report Text: KASG 231448Z 14007KT 7SM BKN060 OVC100 13/08 A3022
Loading
Personal Weather Stations






























Interactive Weather Map
Tropical Storm Tracking
New forecast layout! Learn more

10-Day Weather Forecast

Advertisements
Track Severe Weather on mobile